createdAt,value
2019-03-11T00:05:11.651Z,1.813965
2019-03-11T00:10:34.494Z,1.672974
2019-03-11T00:15:57.320Z,1.713257
2019-03-11T00:21:19.989Z,1.572266
2019-03-11T00:26:42.704Z,1.602478
2019-03-11T00:32:05.628Z,1.50177
2019-03-11T00:37:28.551Z,1.612549
2019-03-11T00:42:51.952Z,1.743469
2019-03-11T00:48:15.215Z,1.703186
2019-03-11T00:53:37.964Z,1.854248
2019-03-11T00:59:01.545Z,2.075806
2019-03-11T01:04:25.156Z,2.116089
2019-03-11T01:09:48.468Z,2.25708
2019-03-11T01:15:11.648Z,2.357788
2019-03-11T01:20:34.385Z,2.398071
2019-03-11T01:25:57.188Z,2.559204
2019-03-11T01:31:20.144Z,2.478638
2019-03-11T01:36:42.949Z,2.25708
2019-03-11T01:42:14.675Z,2.186584
2019-03-11T01:47:37.454Z,2.186584
2019-03-11T01:53:12.603Z,2.25708
2019-03-11T01:58:44.920Z,1.954956
2019-03-11T02:04:07.991Z,1.713257
2019-03-11T02:09:30.702Z,1.260071
2019-03-11T02:15:03.651Z,0.927734
2019-03-11T02:20:35.495Z,0.917664
2019-03-11T02:26:07.437Z,0.897522
2019-03-11T02:37:39.487Z,0.957947
2019-03-11T02:43:02.723Z,0.897522
2019-03-11T02:48:25.376Z,0.816956
2019-03-11T02:54:01.832Z,0.776672
2019-03-11T02:59:36.353Z,0.87738
2019-03-11T03:05:08.194Z,0.978088
2019-03-11T03:10:31.613Z,0.947876
2019-03-11T03:15:54.431Z,1.280212
2019-03-11T03:21:27.934Z,1.491699
2019-03-11T03:27:00.587Z,1.773682
2019-03-11T03:32:33.195Z,1.713257
2019-03-11T03:37:56.159Z,1.824036
2019-03-11T03:43:32.212Z,1.773682
2019-03-11T03:49:05.115Z,1.602478
2019-03-11T03:54:29.011Z,1.572266
2019-03-11T03:59:51.872Z,1.703186
2019-03-11T04:05:26.612Z,1.602478
2019-03-11T04:11:01.754Z,1.612549
2019-03-11T04:23:02.301Z,1.471558
2019-03-11T04:34:36.993Z,1.340637
2019-03-11T04:40:11.050Z,1.280212
2019-03-11T04:45:44.812Z,1.340637
2019-03-11T04:51:08.548Z,1.390991
2019-03-11T04:56:31.413Z,1.50177
2019-03-11T05:02:03.121Z,1.531982
2019-03-11T05:13:39.294Z,1.954956
2019-03-11T05:19:02.184Z,1.854248
2019-03-11T05:24:25.258Z,1.723328
2019-03-11T05:29:58.373Z,1.713257
2019-03-11T05:35:30.805Z,1.562195
2019-03-11T05:41:03.169Z,1.461487
2019-03-11T05:46:26.201Z,1.441345
2019-03-11T05:51:59.998Z,1.260071
2019-03-11T05:57:32.049Z,1.25
2019-03-11T06:02:55.296Z,1.169434
2019-03-11T06:08:18.626Z,1.139221
2019-03-11T06:13:50.906Z,1.209717
2019-03-11T06:19:13.732Z,1.320496
2019-03-11T06:24:36.594Z,1.280212
2019-03-11T06:29:59.503Z,1.260071
2019-03-11T06:35:22.539Z,1.390991
2019-03-11T06:40:46.046Z,1.421204
2019-03-11T06:46:08.118Z,1.471558
2019-03-11T06:51:31.303Z,1.602478
2019-03-11T06:56:54.139Z,1.652832
2019-03-11T07:02:16.856Z,1.652832
2019-03-11T07:07:39.846Z,1.602478
2019-03-11T07:13:02.634Z,1.441345
2019-03-11T07:18:25.443Z,1.320496
2019-03-11T07:23:48.262Z,1.441345
2019-03-11T07:29:11.960Z,1.864319
2019-03-11T07:34:34.963Z,1.924744
2019-03-11T07:39:58.046Z,1.894531
2019-03-11T07:45:21.335Z,1.854248
2019-03-11T07:56:42.830Z,1.88446
2019-03-11T08:02:05.512Z,1.864319
2019-03-11T08:07:29.335Z,1.854248
2019-03-11T08:12:52.376Z,1.924744
2019-03-11T08:18:34.343Z,1.904602
2019-03-11T08:23:58.452Z,1.75354
2019-03-11T08:29:21.415Z,1.723328
2019-03-11T08:34:44.647Z,1.743469
2019-03-11T08:40:07.645Z,1.793823
2019-03-11T08:45:33.118Z,1.954956
2019-03-11T08:50:56.496Z,2.045593
2019-03-11T08:56:21.394Z,2.085876
2019-03-11T09:01:53.365Z,2.226868
2019-03-11T09:07:24.850Z,2.287292
2019-03-11T09:12:59.460Z,2.367859
2019-03-11T09:18:32.633Z,1.904602
2019-03-11T09:24:04.515Z,2.00531
2019-03-11T09:29:28.484Z,2.015381
2019-03-11T09:34:51.379Z,2.25708
2019-03-11T09:40:15.409Z,1.995239
2019-03-11T09:45:38.653Z,2.085876
2019-03-11T09:51:01.925Z,2.075806
2019-03-11T09:56:42.813Z,2.075806
2019-03-11T10:01:57.946Z,2.25708
2019-03-11T10:07:20.656Z,2.659912
2019-03-11T10:12:43.585Z,2.800903
2019-03-11T10:18:06.966Z,2.901611
2019-03-11T10:29:54.584Z,3.01239
2019-03-11T10:35:32.763Z,3.556213
2019-03-11T10:40:54.445Z,3.707275
2019-03-11T10:46:17.376Z,3.677063
2019-03-11T10:51:40.197Z,3.807983
2019-03-11T10:57:03.083Z,3.918762
2019-03-11T11:02:25.758Z,3.999329
2019-03-11T11:07:48.550Z,3.818054
2019-03-11T11:13:11.230Z,3.697205
2019-03-11T11:18:33.971Z,3.797913
2019-03-11T11:23:58.697Z,3.88855
2019-03-11T11:29:21.703Z,3.717346
2019-03-11T11:34:45.279Z,3.777771
2019-03-11T11:40:08.103Z,4.180603
2019-03-11T11:45:30.805Z,4.261169
2019-03-11T11:50:53.522Z,4.543152
2019-03-11T11:56:17.423Z,5.137329
2019-03-11T12:01:40.456Z,5.107117
2019-03-11T12:07:03.157Z,4.925842
2019-03-11T12:12:25.798Z,5.076904
2019-03-11T12:17:48.428Z,5.348816
2019-03-11T12:23:11.091Z,5.90271
2019-03-11T12:28:33.777Z,5.78186
2019-03-11T12:33:56.619Z,5.741577
2019-03-11T12:39:19.450Z,5.832214
2019-03-11T12:44:42.317Z,5.963135
2019-03-11T12:50:04.989Z,6.647949
2019-03-11T12:55:28.699Z,6.214905
2019-03-11T13:00:51.385Z,6.577454
2019-03-11T13:06:14.012Z,6.426392
2019-03-11T13:11:36.795Z,6.970215
2019-03-11T13:16:59.513Z,6.083984
2019-03-11T13:22:22.183Z,6.265259
2019-03-11T13:27:45.020Z,5.802002
2019-03-11T13:33:07.707Z,5.630798
2019-03-11T13:38:30.663Z,5.550232
2019-03-11T13:43:53.914Z,5.751648
2019-03-11T13:49:16.571Z,5.348816
2019-03-11T13:54:39.411Z,5.167542
2019-03-11T14:00:02.123Z,5.117188
2019-03-11T14:05:24.914Z,5.056763
2019-03-11T14:10:47.663Z,4.623718
2019-03-11T14:16:10.346Z,4.351807
2019-03-11T14:21:33.069Z,4.341736
2019-03-11T14:26:55.710Z,4.472656
2019-03-11T14:32:18.419Z,4.613647
2019-03-11T14:37:41.166Z,4.855347
2019-03-11T14:43:04.083Z,5.419312
2019-03-11T14:48:27.017Z,5.379028
2019-03-11T14:53:49.658Z,4.89563
2019-03-11T14:59:12.335Z,4.623718
2019-03-11T15:04:35.060Z,4.714355
2019-03-11T15:09:57.825Z,4.724426
2019-03-11T15:15:23.968Z,4.875488
2019-03-11T15:20:46.648Z,4.855347
2019-03-11T15:26:11.182Z,4.835205
2019-03-11T15:31:34.286Z,4.744568
2019-03-11T15:37:07.708Z,4.694214
2019-03-11T15:42:28.858Z,4.573364
2019-03-11T15:47:51.923Z,4.462585
2019-03-11T15:53:14.658Z,4.472656
2019-03-11T15:58:37.470Z,4.462585
2019-03-11T16:04:00.638Z,4.382019
2019-03-11T16:09:23.549Z,4.251099
2019-03-11T16:14:49.519Z,4.170532
2019-03-11T16:20:09.123Z,4.059753
2019-03-11T16:25:41.219Z,3.928833
2019-03-11T16:31:04.215Z,3.979187
2019-03-11T16:42:18.335Z,4.39209
2019-03-11T16:47:41.377Z,4.462585
2019-03-11T16:53:04.364Z,4.543152
2019-03-11T16:58:27.192Z,4.502869
2019-03-11T17:03:49.974Z,4.502869
2019-03-11T17:09:12.682Z,4.543152
2019-03-11T17:14:35.336Z,4.563293
2019-03-11T17:20:07.202Z,4.573364
2019-03-11T17:25:39.737Z,4.573364
2019-03-11T17:31:02.849Z,4.674072
2019-03-11T17:36:25.615Z,4.613647
2019-03-11T17:41:58.560Z,4.593506
2019-03-11T17:47:31.323Z,4.613647
2019-03-11T17:53:03.465Z,4.694214
2019-03-11T17:58:35.390Z,4.684143
2019-03-11T18:03:58.247Z,4.684143
2019-03-11T18:09:21.885Z,4.724426
2019-03-11T18:14:44.564Z,4.835205
2019-03-11T18:20:08.343Z,4.794922
2019-03-11T18:25:31.732Z,4.77478
2019-03-11T18:30:54.561Z,4.77478
2019-03-11T18:36:17.403Z,4.744568
2019-03-11T18:41:40.357Z,4.865417
2019-03-11T18:47:06.303Z,4.89563
2019-03-11T18:52:29.279Z,4.744568
2019-03-11T18:57:51.928Z,4.653931
2019-03-11T19:03:15.288Z,4.684143
2019-03-11T19:08:38.525Z,4.593506
2019-03-11T19:14:01.955Z,4.593506
2019-03-11T19:19:24.658Z,4.613647
2019-03-11T19:24:48.533Z,4.613647
2019-03-11T19:30:11.258Z,4.543152
2019-03-11T19:35:35.210Z,4.613647
2019-03-11T19:40:57.932Z,4.533081
2019-03-11T19:46:21.170Z,4.502869
2019-03-11T19:51:44.018Z,4.512939
2019-03-11T19:57:06.749Z,4.472656
2019-03-11T20:02:29.649Z,4.422302
2019-03-11T20:07:52.481Z,4.351807
2019-03-11T20:13:15.426Z,4.341736
2019-03-11T20:18:38.347Z,4.361877
2019-03-11T20:24:01.022Z,4.351807
2019-03-11T20:29:24.188Z,4.281311
2019-03-11T20:34:48.187Z,4.261169
2019-03-11T20:40:11.947Z,4.200745
2019-03-11T20:45:34.736Z,4.210815
2019-03-11T20:50:57.417Z,4.291382
2019-03-11T20:56:29.031Z,4.291382
2019-03-11T21:01:52.493Z,4.281311
2019-03-11T21:07:15.276Z,4.180603
2019-03-11T21:12:38.105Z,4.079895
2019-03-11T21:18:00.903Z,4.01947
2019-03-11T21:23:26.032Z,3.928833
2019-03-11T21:28:55.400Z,3.928833
2019-03-11T21:34:27.411Z,3.979187
2019-03-11T21:39:50.412Z,3.979187
2019-03-11T21:45:13.218Z,4.039612
2019-03-11T21:50:37.048Z,4.01947
2019-03-11T21:55:59.838Z,4.059753
2019-03-11T22:01:22.591Z,4.079895
2019-03-11T22:06:45.266Z,4.079895
2019-03-11T22:12:10.526Z,4.130249
2019-03-11T22:17:30.950Z,4.160461
2019-03-11T22:22:54.447Z,4.210815
2019-03-11T22:28:17.276Z,4.261169
2019-03-11T22:33:39.911Z,4.311523
2019-03-11T22:39:03.431Z,4.321594
2019-03-11T22:44:26.256Z,4.281311
2019-03-11T22:49:48.981Z,4.361877
2019-03-11T22:55:11.799Z,4.351807
2019-03-11T23:00:34.571Z,4.361877
2019-03-11T23:05:58.505Z,4.351807
2019-03-11T23:11:19.982Z,4.261169
2019-03-11T23:16:42.634Z,4.200745
2019-03-11T23:22:06.272Z,4.170532
2019-03-11T23:27:29.246Z,4.079895
2019-03-11T23:32:51.899Z,3.999329
2019-03-11T23:38:14.639Z,3.989258
2019-03-11T23:43:37.461Z,3.989258
2019-03-11T23:49:00.915Z,3.948975
2019-03-11T23:54:24.492Z,3.959045
2019-03-11T23:59:47.412Z,3.928833
